createdAt,value
2019-01-06T14:15:50.497Z,15.13
2019-01-06T14:18:22.476Z,12.03
2019-01-06T14:20:57.029Z,8.33
2019-01-06T14:23:30.256Z,11.70
2019-01-06T14:26:10.144Z,13.40
2019-01-06T14:28:57.663Z,12.03
2019-01-06T14:31:34.278Z,10.07
2019-01-06T14:34:18.213Z,10.23
2019-01-06T14:37:01.094Z,10.77
2019-01-06T14:39:48.175Z,12.03
2019-01-06T14:42:21.946Z,10.87
2019-01-06T14:44:55.586Z,12.20
2019-01-06T14:47:55.411Z,12.40
2019-01-06T14:50:32.586Z,11.87
2019-01-06T14:53:03.429Z,10.57
2019-01-06T14:55:37.041Z,7.50
2019-01-06T14:58:07.897Z,9.47
2019-01-06T15:00:44.627Z,13.83
2019-01-06T15:03:31.707Z,10.63
2019-01-06T15:06:02.537Z,10.80
2019-01-06T15:08:49.757Z,11.27
2019-01-06T15:11:32.985Z,13.20
2019-01-06T15:14:06.559Z,11.17
2019-01-06T15:16:42.939Z,10.40
2019-01-06T15:19:13.771Z,10.83
2019-01-06T15:22:00.726Z,10.13
2019-01-06T15:24:34.246Z,11.20
2019-01-06T15:27:05.066Z,10.10
2019-01-06T15:29:41.796Z,12.23
2019-01-06T15:32:18.557Z,10.43
2019-01-06T15:35:05.522Z,9.87
2019-01-06T15:37:36.346Z,11.40
2019-01-06T15:40:09.480Z,13.57
2019-01-06T15:42:40.338Z,10.03
2019-01-06T15:45:13.886Z,10.23
2019-01-06T15:47:53.674Z,12.27
2019-01-06T15:50:27.309Z,14.60
2019-01-06T15:53:00.824Z,14.63
2019-01-06T15:55:46.674Z,13.13
2019-01-06T15:58:26.378Z,10.57
2019-01-06T16:01:13.134Z,10.57
2019-01-06T16:03:58.882Z,11.90
2019-01-06T16:06:41.798Z,12.23
2019-01-06T16:09:28.836Z,11.90
2019-01-06T16:12:14.543Z,11.63
2019-01-06T16:14:50.971Z,13.43
2019-01-06T16:17:21.806Z,11.57
2019-01-06T16:20:04.351Z,14.80
2019-01-06T16:22:40.790Z,13.13
2019-01-06T16:25:23.403Z,17.80
2019-01-06T16:28:05.848Z,13.47
2019-01-06T16:30:39.573Z,14.77
2019-01-06T16:33:28.629Z,16.97
2019-01-06T16:36:02.185Z,18.03
2019-01-06T16:38:33.063Z,16.17
2019-01-06T16:41:12.966Z,17.00
2019-01-06T16:43:43.805Z,15.20
2019-01-06T16:46:17.458Z,15.00
2019-01-06T16:49:00.400Z,18.57
2019-01-06T16:51:34.074Z,18.43
2019-01-06T16:54:04.895Z,19.27
2019-01-06T16:56:52.002Z,23.17
2019-01-06T16:59:41.015Z,16.50
2019-01-06T17:02:28.195Z,20.63
2019-01-06T17:04:59.036Z,19.17
2019-01-06T17:07:29.859Z,18.77
2019-01-06T17:10:16.995Z,17.67
2019-01-06T17:12:53.550Z,16.57
2019-01-06T17:15:26.863Z,18.77
2019-01-06T17:18:06.614Z,18.10
2019-01-06T17:20:40.031Z,15.60
2019-01-06T17:23:27.041Z,17.30
2019-01-06T17:25:57.895Z,18.60
2019-01-06T17:28:31.534Z,19.30
2019-01-06T17:31:07.861Z,18.00
2019-01-06T17:33:44.156Z,16.87
2019-01-06T17:36:26.714Z,17.67
2019-01-06T17:39:03.827Z,22.97
2019-01-06T17:41:34.676Z,23.30
2019-01-06T17:44:21.589Z,23.67
2019-01-06T17:46:58.282Z,21.63
2019-01-06T17:49:31.741Z,19.03
2019-01-06T17:52:02.594Z,23.27
2019-01-06T17:54:49.720Z,21.37
2019-01-06T17:57:36.758Z,16.60
2019-01-06T18:00:13.474Z,16.47
2019-01-06T18:02:44.299Z,16.77
2019-01-06T18:05:15.127Z,17.97
2019-01-06T18:07:48.825Z,18.97
2019-01-06T18:10:34.533Z,20.37
2019-01-06T18:13:05.391Z,20.87
2019-01-06T18:15:54.003Z,17.10
2019-01-06T18:18:27.503Z,16.83
2019-01-06T18:20:58.325Z,18.10
2019-01-06T18:23:41.127Z,17.83
2019-01-06T18:26:11.941Z,18.03
2019-01-06T18:28:45.428Z,20.47
2019-01-06T18:31:31.143Z,19.07
2019-01-06T18:34:10.725Z,17.37
2019-01-06T18:36:50.410Z,22.47
2019-01-06T18:39:36.229Z,21.67
2019-01-06T18:42:15.951Z,17.70
2019-01-06T18:44:46.783Z,17.77
2019-01-06T18:47:33.699Z,22.40
2019-01-06T18:50:07.491Z,21.63
2019-01-06T18:52:54.498Z,24.30
2019-01-06T18:55:41.470Z,28.23
2019-01-06T18:58:18.272Z,21.47
2019-01-06T19:00:55.796Z,21.70
2019-01-06T19:03:38.814Z,21.07
2019-01-06T19:06:15.687Z,20.43
2019-01-06T19:08:46.528Z,23.60
2019-01-06T19:11:26.208Z,20.53
2019-01-06T19:14:05.860Z,19.17
2019-01-06T19:16:36.685Z,21.27
2019-01-06T19:19:22.411Z,28.23
2019-01-06T19:22:09.224Z,23.30
2019-01-06T19:24:45.954Z,24.90
2019-01-06T19:27:32.909Z,19.27
2019-01-06T19:30:19.934Z,23.40
